createdAt,value
2022-11-28T00:00:39.533Z,997.47
2022-11-28T00:01:42.177Z,997.45
2022-11-28T00:02:45.459Z,997.45
2022-11-28T00:03:49.422Z,997.4
2022-11-28T00:04:52.724Z,997.34
2022-11-28T00:05:55.311Z,997.29
2022-11-28T00:06:59.404Z,997.25
2022-11-28T00:08:02.462Z,997.16
2022-11-28T00:09:05.086Z,997.19
2022-11-28T00:10:07.776Z,997.16
2022-11-28T00:11:10.682Z,997.19
2022-11-28T00:12:13.333Z,997.19
2022-11-28T00:13:15.984Z,997.1
2022-11-28T00:14:18.638Z,997.17
2022-11-28T00:15:21.455Z,997.07
2022-11-28T00:16:24.656Z,997.04
2022-11-28T00:17:27.267Z,997.03
2022-11-28T00:18:30.505Z,997.07
2022-11-28T00:19:33.114Z,997.09
2022-11-28T00:20:35.738Z,997.05
2022-11-28T00:21:38.434Z,997.06
2022-11-28T00:22:41.065Z,997.03
2022-11-28T00:23:43.886Z,996.99
2022-11-28T00:24:46.462Z,997
2022-11-28T00:25:49.070Z,996.95
2022-11-28T00:26:51.952Z,996.88
2022-11-28T00:27:54.744Z,996.92
2022-11-28T00:28:57.379Z,996.96
2022-11-28T00:29:59.997Z,996.92
2022-11-28T00:31:02.770Z,996.91
2022-11-28T00:32:05.964Z,996.79
2022-11-28T00:33:08.869Z,996.74
2022-11-28T00:34:11.489Z,996.77
2022-11-28T00:35:14.149Z,996.84
2022-11-28T00:36:16.765Z,996.8
2022-11-28T00:37:19.673Z,996.96
2022-11-28T00:38:22.527Z,996.98
2022-11-28T00:39:25.188Z,997.01
2022-11-28T00:40:27.829Z,997.03
2022-11-28T00:41:30.509Z,996.97
2022-11-28T00:42:33.326Z,996.94
2022-11-28T00:43:35.998Z,996.9
2022-11-28T00:44:38.616Z,996.78
2022-11-28T00:45:42.044Z,996.89
2022-11-28T00:46:45.030Z,996.99
2022-11-28T00:47:47.991Z,997.09
2022-11-28T00:48:50.609Z,997.16
2022-11-28T00:49:53.241Z,997.02
2022-11-28T00:50:55.826Z,997.04
2022-11-28T00:51:58.428Z,997.01
2022-11-28T00:53:01.065Z,997.06
2022-11-28T00:54:03.743Z,997.07
2022-11-28T00:55:06.629Z,997.09
2022-11-28T00:56:09.316Z,997.08
2022-11-28T00:57:11.917Z,997.08
2022-11-28T00:58:14.815Z,997.07
2022-11-28T00:59:18.481Z,997.04
2022-11-28T01:00:20.981Z,997.03
2022-11-28T01:01:24.126Z,997.06
2022-11-28T01:02:27.054Z,997.15
2022-11-28T01:03:30.053Z,997.15
2022-11-28T01:04:32.696Z,997.15
2022-11-28T01:05:35.303Z,997.06
2022-11-28T01:06:38.180Z,997.04
2022-11-28T01:07:41.015Z,997.01
2022-11-28T01:08:43.671Z,996.94
2022-11-28T01:09:46.890Z,996.9
2022-11-28T01:10:49.499Z,996.96
2022-11-28T01:11:52.416Z,996.9
2022-11-28T01:12:54.974Z,996.87
2022-11-28T01:13:57.851Z,996.85
2022-11-28T01:15:00.465Z,996.81
2022-11-28T01:16:03.500Z,996.82
2022-11-28T01:17:06.127Z,996.81
2022-11-28T01:18:08.870Z,996.73
2022-11-28T01:19:11.668Z,996.77
2022-11-28T01:20:14.309Z,996.74
2022-11-28T01:21:17.128Z,996.86
2022-11-28T01:22:19.727Z,996.86
2022-11-28T01:23:22.395Z,996.85
2022-11-28T01:24:25.266Z,996.9
2022-11-28T01:25:27.942Z,996.85
2022-11-28T01:26:30.574Z,996.79
2022-11-28T01:27:33.218Z,996.85
2022-11-28T01:28:35.872Z,996.85
2022-11-28T01:29:38.773Z,996.83
2022-11-28T01:30:41.383Z,996.82
2022-11-28T01:31:44.289Z,996.76
2022-11-28T01:32:47.454Z,996.71
2022-11-28T01:33:50.239Z,996.69
2022-11-28T01:34:53.207Z,996.71
2022-11-28T01:35:55.864Z,996.66
2022-11-28T01:36:58.505Z,996.61
2022-11-28T01:38:01.113Z,996.61
2022-11-28T01:39:03.784Z,996.63
2022-11-28T01:40:06.417Z,996.56
2022-11-28T01:41:09.034Z,996.53
2022-11-28T01:42:11.709Z,996.56
2022-11-28T01:43:14.325Z,996.52
2022-11-28T01:44:16.954Z,996.54
2022-11-28T01:45:19.836Z,996.44
2022-11-28T01:46:22.575Z,996.47
2022-11-28T01:47:25.224Z,996.45
2022-11-28T01:48:27.836Z,996.39
2022-11-28T01:49:30.589Z,996.4
2022-11-28T01:50:33.577Z,996.45
2022-11-28T01:51:36.211Z,996.4
2022-11-28T01:52:38.849Z,996.37
2022-11-28T01:53:42.276Z,996.38
2022-11-28T01:54:45.308Z,996.34
2022-11-28T01:55:47.946Z,996.33
2022-11-28T01:56:50.619Z,996.36
2022-11-28T01:57:53.250Z,996.36
2022-11-28T01:58:55.839Z,996.3
2022-11-28T01:59:58.499Z,996.25
2022-11-28T02:01:01.631Z,996.29
2022-11-28T02:02:05.223Z,996.22
2022-11-28T02:03:07.872Z,996.28
2022-11-28T02:04:10.479Z,996.28
2022-11-28T02:05:13.209Z,996.24
2022-11-28T02:06:15.953Z,996.24
2022-11-28T02:07:18.756Z,996.25
2022-11-28T02:08:21.411Z,996.22
2022-11-28T02:09:24.024Z,996.27
2022-11-28T02:10:26.646Z,996.18
2022-11-28T02:11:29.286Z,996.14
2022-11-28T02:12:32.181Z,996.15
2022-11-28T02:13:35.032Z,996.13
2022-11-28T02:14:37.681Z,996.11
2022-11-28T02:15:40.332Z,996.06
2022-11-28T02:16:43.652Z,996.02
2022-11-28T02:17:46.283Z,996.03
2022-11-28T02:18:51.078Z,995.98
2022-11-28T02:19:53.729Z,995.96
2022-11-28T02:20:56.466Z,995.92
2022-11-28T02:21:59.241Z,995.9
2022-11-28T02:23:01.848Z,995.93
2022-11-28T02:24:04.475Z,995.87
2022-11-28T02:25:07.182Z,995.78
2022-11-28T02:26:09.885Z,995.77
2022-11-28T02:27:12.516Z,995.8
2022-11-28T02:28:15.417Z,995.75
2022-11-28T02:29:18.003Z,995.79
2022-11-28T02:30:20.618Z,995.73
2022-11-28T02:31:23.551Z,995.74
2022-11-28T02:32:26.452Z,995.73
2022-11-28T02:33:29.099Z,995.78
2022-11-28T02:34:31.687Z,995.75
2022-11-28T02:35:34.320Z,995.72
2022-11-28T02:36:37.084Z,995.67
2022-11-28T02:37:39.832Z,995.72
2022-11-28T02:38:42.700Z,995.68
2022-11-28T02:39:45.561Z,995.68
2022-11-28T02:40:48.205Z,995.58
2022-11-28T02:41:51.092Z,995.64
2022-11-28T02:42:53.712Z,995.61
2022-11-28T02:44:04.792Z,995.59
2022-11-28T02:45:07.064Z,995.57
2022-11-28T02:46:09.688Z,995.48
2022-11-28T02:47:12.928Z,995.49
2022-11-28T02:48:15.795Z,995.49
2022-11-28T02:49:18.447Z,995.46
2022-11-28T02:50:21.081Z,995.53
2022-11-28T02:51:23.709Z,995.61
2022-11-28T02:52:26.693Z,995.68
2022-11-28T02:53:29.434Z,995.7
2022-11-28T02:54:32.110Z,995.82
2022-11-28T02:55:34.751Z,995.83
2022-11-28T02:56:37.394Z,995.85
2022-11-28T02:57:40.259Z,995.73
2022-11-28T02:58:42.925Z,995.73
2022-11-28T02:59:45.612Z,995.76
2022-11-28T03:00:48.652Z,995.74
2022-11-28T03:01:51.425Z,995.75
2022-11-28T03:02:54.316Z,995.71
2022-11-28T03:03:57.142Z,995.67
2022-11-28T03:04:59.787Z,995.72
2022-11-28T03:06:02.408Z,995.75
2022-11-28T03:07:05.078Z,995.73
2022-11-28T03:08:07.851Z,995.81
2022-11-28T03:09:10.607Z,995.7
2022-11-28T03:10:13.252Z,995.72
2022-11-28T03:11:15.860Z,995.73
2022-11-28T03:12:18.563Z,995.75
2022-11-28T03:13:21.183Z,995.76
2022-11-28T03:14:23.822Z,995.68
2022-11-28T03:15:26.483Z,995.7
2022-11-28T03:16:29.668Z,995.72
2022-11-28T03:17:32.270Z,995.65
2022-11-28T03:18:34.913Z,995.66
2022-11-28T03:19:37.778Z,995.63
2022-11-28T03:20:40.390Z,995.69
2022-11-28T03:21:43.260Z,995.67
2022-11-28T03:22:48.373Z,995.71
2022-11-28T03:23:50.973Z,995.76
2022-11-28T03:24:53.706Z,995.75
2022-11-28T03:25:56.312Z,995.73
2022-11-28T03:26:58.917Z,995.79
2022-11-28T03:28:01.853Z,995.76
2022-11-28T03:29:04.635Z,995.74
2022-11-28T03:30:07.571Z,995.76
2022-11-28T03:31:12.927Z,995.77
2022-11-28T03:32:15.658Z,995.79
2022-11-28T03:33:18.323Z,995.8
2022-11-28T03:34:20.979Z,995.78
2022-11-28T03:35:23.860Z,995.76
2022-11-28T03:36:27.412Z,995.73
2022-11-28T03:37:30.067Z,995.79
2022-11-28T03:38:32.743Z,995.76
2022-11-28T03:39:35.487Z,995.76
2022-11-28T03:40:38.231Z,995.72
2022-11-28T03:41:40.872Z,995.74
2022-11-28T03:42:43.485Z,995.79
2022-11-28T03:43:46.139Z,995.74
2022-11-28T03:44:48.778Z,995.78
2022-11-28T03:45:51.425Z,995.68
2022-11-28T03:46:54.305Z,995.73
2022-11-28T03:47:56.968Z,995.71
2022-11-28T03:48:59.616Z,995.71
2022-11-28T03:50:02.325Z,995.64
2022-11-28T03:51:05.202Z,995.74
2022-11-28T03:52:07.832Z,995.68
2022-11-28T03:53:10.470Z,995.74
2022-11-28T03:54:13.091Z,995.69
2022-11-28T03:55:15.846Z,995.67
2022-11-28T03:56:18.599Z,995.65
2022-11-28T03:57:21.241Z,995.69
2022-11-28T03:58:23.874Z,995.64
2022-11-28T03:59:26.506Z,995.7
2022-11-28T04:00:29.438Z,995.73
2022-11-28T04:01:32.320Z,995.68
2022-11-28T04:02:35.194Z,995.69
2022-11-28T04:03:37.876Z,995.71
2022-11-28T04:04:42.130Z,995.72
2022-11-28T04:05:44.723Z,995.71
2022-11-28T04:06:47.515Z,995.7
2022-11-28T04:07:50.392Z,995.71
2022-11-28T04:08:53.085Z,995.66
2022-11-28T04:09:55.672Z,995.74
2022-11-28T04:10:58.441Z,995.71
2022-11-28T04:12:01.157Z,995.78
2022-11-28T04:13:03.783Z,995.77
2022-11-28T04:14:06.412Z,995.77
2022-11-28T04:15:09.078Z,995.77
2022-11-28T04:16:11.922Z,995.77
2022-11-28T04:17:14.549Z,995.8
2022-11-28T04:18:17.171Z,995.81
2022-11-28T04:19:19.821Z,995.81
2022-11-28T04:20:22.443Z,995.81
2022-11-28T04:21:25.074Z,995.81
2022-11-28T04:22:27.947Z,995.81
2022-11-28T04:23:30.535Z,995.77
2022-11-28T04:24:33.218Z,995.77
2022-11-28T04:25:35.872Z,995.75
2022-11-28T04:26:38.613Z,995.72
2022-11-28T04:27:41.654Z,995.76
2022-11-28T04:28:44.280Z,995.78
2022-11-28T04:29:46.973Z,995.69
2022-11-28T04:30:49.596Z,995.67
2022-11-28T04:31:52.463Z,995.68
2022-11-28T04:32:55.146Z,995.67
2022-11-28T04:33:57.799Z,995.66
2022-11-28T04:35:00.460Z,995.68
2022-11-28T04:36:03.097Z,995.66
2022-11-28T04:37:10.327Z,995.64
2022-11-28T04:38:13.152Z,995.62
2022-11-28T04:39:15.721Z,995.59
2022-11-28T04:40:18.345Z,995.63
2022-11-28T04:41:21.012Z,995.63
2022-11-28T04:42:23.813Z,995.68
2022-11-28T04:43:26.518Z,995.62
2022-11-28T04:44:29.165Z,995.64
2022-11-28T04:45:32.072Z,995.63
2022-11-28T04:46:34.662Z,995.6
2022-11-28T04:47:37.332Z,995.6
2022-11-28T04:48:40.197Z,995.62
2022-11-28T04:49:43.024Z,995.6
2022-11-28T04:50:45.626Z,995.59
2022-11-28T04:51:48.255Z,995.64
2022-11-28T04:52:50.895Z,995.54
2022-11-28T04:53:53.783Z,995.56
2022-11-28T04:54:56.422Z,995.47
2022-11-28T04:55:59.013Z,995.47
2022-11-28T04:57:01.698Z,995.45
2022-11-28T04:58:04.412Z,995.48
2022-11-28T04:59:07.183Z,995.48
2022-11-28T05:00:09.769Z,995.49
2022-11-28T05:01:12.671Z,995.45
2022-11-28T05:02:15.532Z,995.45
2022-11-28T05:03:18.133Z,995.43
2022-11-28T05:04:20.801Z,995.44
2022-11-28T05:05:23.440Z,995.37
2022-11-28T05:06:26.082Z,995.33
2022-11-28T05:07:28.957Z,995.3
2022-11-28T05:08:31.594Z,995.33
2022-11-28T05:09:34.559Z,995.35
2022-11-28T05:10:37.184Z,995.26
2022-11-28T05:11:39.865Z,995.27
2022-11-28T05:12:42.463Z,995.2
2022-11-28T05:13:45.477Z,995.21
2022-11-28T05:14:48.221Z,995.15
2022-11-28T05:15:50.905Z,995.15
2022-11-28T05:16:54.060Z,995.21
2022-11-28T05:17:56.889Z,995.15
2022-11-28T05:18:59.510Z,995.19
2022-11-28T05:20:02.160Z,995.13
2022-11-28T05:21:04.827Z,995.14
2022-11-28T05:22:07.464Z,995.13
2022-11-28T05:23:10.101Z,995.09
2022-11-28T05:24:12.983Z,995.09
2022-11-28T05:25:15.863Z,995.11
2022-11-28T05:26:19.079Z,995.12
2022-11-28T05:27:21.707Z,995.08
2022-11-28T05:28:24.363Z,995.15
2022-11-28T05:29:27.148Z,995.16
2022-11-28T05:30:29.875Z,995.24
2022-11-28T05:31:32.835Z,995.16
2022-11-28T05:32:35.463Z,995.22
2022-11-28T05:33:38.705Z,995.21
2022-11-28T05:34:42.652Z,995.18
2022-11-28T05:35:45.300Z,995.22
2022-11-28T05:36:47.964Z,995.26
2022-11-28T05:37:51.170Z,995.3
2022-11-28T05:38:53.821Z,995.31
2022-11-28T05:39:56.397Z,995.29
2022-11-28T05:40:59.337Z,995.33
2022-11-28T05:42:01.985Z,995.28
2022-11-28T05:43:04.620Z,995.33
2022-11-28T05:44:07.260Z,995.3
2022-11-28T05:45:10.005Z,995.31
2022-11-28T05:46:13.554Z,995.33
2022-11-28T05:47:16.147Z,995.3
2022-11-28T05:48:18.814Z,995.27
2022-11-28T05:49:21.439Z,995.37
2022-11-28T05:50:24.108Z,995.32
2022-11-28T05:51:26.721Z,995.32
2022-11-28T05:52:29.408Z,995.4
2022-11-28T05:53:32.087Z,995.42
2022-11-28T05:54:34.995Z,995.33
2022-11-28T05:55:37.853Z,995.34
2022-11-28T05:56:43.117Z,995.32
2022-11-28T05:57:45.539Z,995.34
2022-11-28T05:58:48.143Z,995.25
2022-11-28T05:59:50.771Z,995.32
2022-11-28T06:00:53.501Z,995.35
2022-11-28T06:01:56.530Z,995.28
2022-11-28T06:03:02.193Z,995.29
2022-11-28T06:04:05.094Z,995.36
2022-11-28T06:05:41.370Z,995.31
2022-11-28T06:06:29.614Z,995.3
2022-11-28T06:07:32.473Z,995.28
2022-11-28T06:08:35.113Z,995.33
2022-11-28T06:09:37.760Z,995.33
2022-11-28T06:10:40.385Z,995.34
2022-11-28T06:11:43.305Z,995.35
2022-11-28T06:12:46.138Z,995.36
2022-11-28T06:13:48.753Z,995.37
2022-11-28T06:14:51.401Z,995.35
2022-11-28T06:15:55.029Z,995.28
2022-11-28T06:16:57.977Z,995.29
2022-11-28T06:18:00.722Z,995.3
2022-11-28T06:19:04.433Z,995.31
2022-11-28T06:20:07.774Z,995.34
2022-11-28T06:21:10.401Z,995.28
2022-11-28T06:22:13.067Z,995.3
2022-11-28T06:23:15.698Z,995.31
2022-11-28T06:24:18.366Z,995.3
2022-11-28T06:25:21.209Z,995.33
2022-11-28T06:26:23.851Z,995.31
2022-11-28T06:27:26.508Z,995.26
2022-11-28T06:28:29.380Z,995.3
2022-11-28T06:29:32.001Z,995.24
2022-11-28T06:30:34.643Z,995.23
2022-11-28T06:31:37.485Z,995.26
2022-11-28T06:32:40.261Z,995.22
2022-11-28T06:33:43.036Z,995.24
2022-11-28T06:34:45.667Z,995.28
2022-11-28T06:35:48.274Z,995.29
2022-11-28T06:36:50.957Z,995.29
2022-11-28T06:37:55.035Z,995.29
2022-11-28T06:38:57.601Z,995.28
2022-11-28T06:40:00.323Z,995.27
2022-11-28T06:41:03.006Z,995.31
2022-11-28T06:42:05.931Z,995.32
2022-11-28T06:43:08.502Z,995.34
2022-11-28T06:44:11.416Z,995.29
2022-11-28T06:45:14.630Z,995.31
2022-11-28T06:46:17.640Z,995.29
2022-11-28T06:47:20.250Z,995.33
2022-11-28T06:48:23.060Z,995.32
2022-11-28T06:49:25.804Z,995.3
2022-11-28T06:50:28.444Z,995.32
2022-11-28T06:51:31.112Z,995.27
2022-11-28T06:52:33.755Z,995.32
2022-11-28T06:53:36.414Z,995.27
2022-11-28T06:54:39.037Z,995.32
2022-11-28T06:55:41.689Z,995.36
2022-11-28T06:56:44.377Z,995.31
2022-11-28T06:57:46.996Z,995.34
2022-11-28T06:58:50.244Z,995.33
2022-11-28T06:59:53.079Z,995.33
2022-11-28T07:00:56.020Z,995.37
2022-11-28T07:02:27.420Z,995.39
2022-11-28T07:03:30.222Z,995.38
2022-11-28T07:04:32.919Z,995.4
2022-11-28T07:05:35.427Z,995.46
2022-11-28T07:06:38.103Z,995.47
2022-11-28T07:07:54.822Z,995.51
2022-11-28T07:08:57.002Z,995.6
2022-11-28T07:09:59.565Z,995.64
2022-11-28T07:11:02.212Z,995.62
2022-11-28T07:12:04.830Z,995.65
2022-11-28T07:13:07.479Z,995.7
2022-11-28T07:14:10.377Z,995.71
2022-11-28T07:15:13.225Z,995.69
2022-11-28T07:16:16.415Z,995.71
2022-11-28T07:17:19.056Z,995.64
2022-11-28T07:18:21.690Z,995.62
2022-11-28T07:19:24.459Z,995.66
2022-11-28T07:20:27.200Z,995.67
2022-11-28T07:21:29.891Z,995.71
2022-11-28T07:22:32.580Z,995.78
2022-11-28T07:23:35.800Z,995.76
2022-11-28T07:24:38.455Z,995.78
2022-11-28T07:25:41.584Z,995.8
2022-11-28T07:26:44.235Z,995.77
2022-11-28T07:27:46.841Z,995.83
2022-11-28T07:28:49.466Z,995.84
2022-11-28T07:29:52.088Z,995.82
2022-11-28T07:30:54.919Z,995.8
2022-11-28T07:31:58.102Z,995.84
2022-11-28T07:33:00.811Z,995.81
2022-11-28T07:34:04.024Z,995.85
2022-11-28T07:35:06.802Z,995.8
2022-11-28T07:36:09.548Z,995.83
2022-11-28T07:37:12.156Z,995.83
2022-11-28T07:38:14.770Z,995.89
2022-11-28T07:39:17.385Z,995.82
2022-11-28T07:40:20.015Z,995.83
2022-11-28T07:41:27.795Z,995.79
2022-11-28T07:42:30.091Z,995.77
2022-11-28T07:43:32.720Z,995.73
2022-11-28T07:44:35.365Z,995.69
2022-11-28T07:46:00.783Z,995.68
2022-11-28T07:47:00.251Z,995.63
2022-11-28T07:48:02.816Z,995.62
2022-11-28T07:49:05.418Z,995.6
2022-11-28T07:50:08.068Z,995.55
2022-11-28T07:51:10.777Z,995.49
2022-11-28T07:52:13.442Z,995.56
2022-11-28T07:53:16.090Z,995.55
2022-11-28T07:54:18.708Z,995.55
2022-11-28T07:55:21.354Z,995.62
2022-11-28T07:56:24.005Z,995.64
2022-11-28T07:57:26.663Z,995.69
2022-11-28T07:58:29.354Z,995.69
2022-11-28T07:59:32.462Z,995.68
2022-11-28T08:00:35.239Z,995.58
2022-11-28T08:01:38.365Z,995.63
2022-11-28T08:02:41.263Z,995.64
2022-11-28T08:03:43.931Z,995.58
2022-11-28T08:04:55.850Z,995.62
2022-11-28T08:06:03.536Z,995.65
2022-11-28T08:07:05.804Z,995.62
2022-11-28T08:08:08.597Z,995.67
2022-11-28T08:09:11.226Z,995.69
2022-11-28T08:10:13.866Z,995.72
2022-11-28T08:11:16.483Z,995.74
2022-11-28T08:12:19.115Z,995.72
2022-11-28T08:13:28.299Z,995.71
2022-11-28T08:14:30.475Z,995.71
2022-11-28T08:15:39.731Z,995.65
2022-11-28T08:16:42.244Z,995.61
2022-11-28T08:17:44.898Z,995.65
2022-11-28T08:18:47.755Z,995.68
2022-11-28T08:19:51.836Z,995.66
2022-11-28T08:20:54.439Z,995.64
2022-11-28T08:21:57.126Z,995.67
2022-11-28T08:22:59.734Z,995.66
2022-11-28T08:24:02.397Z,995.59
2022-11-28T08:25:05.063Z,995.64
2022-11-28T08:26:07.695Z,995.59
2022-11-28T08:27:10.317Z,995.63
2022-11-28T08:28:12.985Z,995.66
2022-11-28T08:29:15.647Z,995.64
2022-11-28T08:30:18.903Z,995.64
2022-11-28T08:31:22.023Z,995.71
2022-11-28T08:32:24.665Z,995.65
2022-11-28T08:33:27.342Z,995.61
2022-11-28T08:34:30.229Z,995.67
2022-11-28T08:35:32.867Z,995.64
2022-11-28T08:36:35.930Z,995.66
2022-11-28T08:37:38.604Z,995.64
2022-11-28T08:38:41.266Z,995.65
2022-11-28T08:39:45.533Z,995.68
2022-11-28T08:40:48.725Z,995.67
2022-11-28T08:41:51.367Z,995.66
2022-11-28T08:42:53.998Z,995.72
2022-11-28T08:44:11.335Z,995.67
2022-11-28T08:45:13.689Z,995.69
2022-11-28T08:46:16.690Z,995.64
2022-11-28T08:47:19.357Z,995.66
2022-11-28T08:48:21.975Z,995.62
2022-11-28T08:49:24.632Z,995.67
2022-11-28T08:50:27.508Z,995.7
2022-11-28T08:51:33.580Z,995.61
2022-11-28T08:52:35.976Z,995.69
2022-11-28T08:53:38.646Z,995.61
2022-11-28T08:54:42.774Z,995.67
2022-11-28T08:55:45.672Z,995.61
2022-11-28T08:56:48.531Z,995.66
2022-11-28T08:57:51.167Z,995.63
2022-11-28T08:58:53.832Z,995.7
2022-11-28T08:59:56.488Z,995.65
2022-11-28T09:00:59.378Z,995.68
2022-11-28T09:02:06.534Z,995.69
2022-11-28T09:03:08.812Z,995.62
2022-11-28T09:04:11.927Z,995.64
2022-11-28T09:05:14.727Z,995.69
2022-11-28T09:06:17.340Z,995.61
2022-11-28T09:07:20.272Z,995.62
2022-11-28T09:08:24.545Z,995.63
2022-11-28T09:09:33.235Z,995.67
2022-11-28T09:10:35.514Z,995.7
2022-11-28T09:11:38.163Z,995.69
2022-11-28T09:12:41.044Z,995.76
2022-11-28T09:13:43.848Z,995.71
2022-11-28T09:14:46.460Z,995.76
2022-11-28T09:15:54.047Z,995.67
2022-11-28T09:16:56.634Z,995.75
2022-11-28T09:17:59.297Z,995.73
2022-11-28T09:19:01.986Z,995.78
2022-11-28T09:20:04.712Z,995.71
2022-11-28T09:21:07.484Z,995.77
2022-11-28T09:22:10.154Z,995.8
2022-11-28T09:23:12.773Z,995.82
2022-11-28T09:24:15.448Z,995.76
2022-11-28T09:25:18.121Z,995.82
2022-11-28T09:26:20.782Z,995.82
2022-11-28T09:27:23.487Z,995.8
2022-11-28T09:28:26.106Z,995.79
2022-11-28T09:29:28.738Z,995.81
2022-11-28T09:30:31.731Z,995.78
2022-11-28T09:31:34.778Z,995.78
2022-11-28T09:32:37.460Z,995.79
2022-11-28T09:33:40.148Z,995.78
2022-11-28T09:34:42.749Z,995.77
2022-11-28T09:35:45.510Z,995.82
2022-11-28T09:36:48.316Z,995.78
2022-11-28T09:37:51.004Z,995.8
2022-11-28T09:38:53.663Z,995.83
2022-11-28T09:40:13.648Z,995.8
2022-11-28T09:41:15.970Z,995.79
2022-11-28T09:42:18.555Z,995.8
2022-11-28T09:43:21.221Z,995.79
2022-11-28T09:44:23.872Z,995.71
2022-11-28T09:45:26.524Z,995.72
2022-11-28T09:46:33.968Z,995.63
2022-11-28T09:47:36.262Z,995.64
2022-11-28T09:48:41.440Z,995.61
2022-11-28T09:49:45.062Z,995.63
2022-11-28T09:50:47.674Z,995.66
2022-11-28T09:51:55.941Z,995.65
2022-11-28T09:52:58.477Z,995.69
2022-11-28T09:54:01.130Z,995.66
2022-11-28T09:55:03.809Z,995.67
2022-11-28T09:56:06.442Z,995.75
2022-11-28T09:57:09.358Z,995.72
2022-11-28T09:58:17.543Z,995.71
2022-11-28T09:59:20.034Z,995.71
2022-11-28T10:00:22.716Z,995.76
2022-11-28T10:01:25.428Z,995.81
2022-11-28T10:02:28.459Z,995.74
2022-11-28T10:03:38.355Z,995.72
2022-11-28T10:04:57.989Z,995.71
2022-11-28T10:06:00.416Z,995.74
2022-11-28T10:07:03.081Z,995.75
2022-11-28T10:08:05.893Z,995.74
2022-11-28T10:09:08.516Z,995.7
2022-11-28T10:10:11.358Z,995.7
2022-11-28T10:11:14.036Z,995.73
2022-11-28T10:12:16.695Z,995.75
2022-11-28T10:13:19.506Z,995.69
2022-11-28T10:14:22.122Z,995.75
2022-11-28T10:15:28.065Z,995.72
2022-11-28T10:16:31.030Z,995.75
2022-11-28T10:17:33.683Z,995.71
2022-11-28T10:18:36.320Z,995.68
2022-11-28T10:19:54.960Z,995.69
2022-11-28T10:20:57.251Z,995.65
2022-11-28T10:21:59.945Z,995.68
2022-11-28T10:23:02.792Z,995.68
2022-11-28T10:24:05.401Z,995.63
2022-11-28T10:25:08.035Z,995.64
2022-11-28T10:26:12.186Z,995.6
2022-11-28T10:27:14.624Z,995.66
2022-11-28T10:28:17.324Z,995.61
2022-11-28T10:29:19.958Z,995.59
2022-11-28T10:30:22.566Z,995.59
2022-11-28T10:31:26.292Z,995.67
2022-11-28T10:32:35.356Z,995.67
2022-11-28T10:33:37.627Z,995.61
2022-11-28T10:34:40.257Z,995.65
2022-11-28T10:35:42.889Z,995.6
2022-11-28T10:36:52.124Z,995.59
2022-11-28T10:37:54.367Z,995.54
2022-11-28T10:38:57.285Z,995.61
2022-11-28T10:39:59.929Z,995.59
2022-11-28T10:41:02.549Z,995.54
2022-11-28T10:42:05.253Z,995.52
2022-11-28T10:43:07.897Z,995.51
2022-11-28T10:44:10.603Z,995.48
2022-11-28T10:45:13.231Z,995.43
2022-11-28T10:46:16.295Z,995.47
2022-11-28T10:47:19.475Z,995.44
2022-11-28T10:48:41.419Z,995.43
2022-11-28T10:49:46.119Z,995.44
2022-11-28T10:50:48.377Z,995.45
2022-11-28T10:51:51.038Z,995.5
2022-11-28T10:52:53.691Z,995.47
2022-11-28T10:53:56.311Z,995.43
2022-11-28T10:54:59.044Z,995.45
2022-11-28T10:56:12.181Z,995.41
2022-11-28T10:57:14.254Z,995.4
2022-11-28T10:58:16.859Z,995.36
2022-11-28T10:59:19.552Z,995.33
2022-11-28T11:00:22.196Z,995.34
2022-11-28T11:01:25.281Z,995.34
2022-11-28T11:02:31.833Z,995.31
2022-11-28T11:03:34.498Z,995.29
2022-11-28T11:04:56.535Z,995.27
2022-11-28T11:06:00.373Z,995.23
2022-11-28T11:07:20.867Z,995.22
2022-11-28T11:08:25.128Z,995.2
2022-11-28T11:09:27.781Z,995.21
2022-11-28T11:10:30.668Z,995.17
2022-11-28T11:11:33.491Z,995.18
2022-11-28T11:12:41.835Z,995.17
2022-11-28T11:13:44.021Z,995.14
2022-11-28T11:14:46.636Z,995.18
2022-11-28T11:15:49.655Z,995.17
2022-11-28T11:16:56.840Z,995.13
2022-11-28T11:18:08.732Z,995.16
2022-11-28T11:19:10.885Z,995.14
2022-11-28T11:20:35.450Z,995.19
2022-11-28T11:21:41.781Z,995.2
2022-11-28T11:22:46.429Z,995.17
2022-11-28T11:23:49.372Z,995.19
2022-11-28T11:24:51.806Z,995.15
2022-11-28T11:25:54.672Z,995.14
2022-11-28T11:26:57.332Z,995.12
2022-11-28T11:27:59.986Z,995.12
2022-11-28T11:29:02.619Z,995.08
2022-11-28T11:30:05.335Z,995.11
2022-11-28T11:31:08.278Z,995.09
2022-11-28T11:32:10.929Z,995.04
2022-11-28T11:33:13.632Z,995.06
2022-11-28T11:34:21.929Z,995.06
2022-11-28T11:35:24.062Z,995.03
2022-11-28T11:36:26.822Z,995.03
2022-11-28T11:37:30.977Z,995
2022-11-28T11:38:38.537Z,994.97
2022-11-28T11:39:42.081Z,994.97
2022-11-28T11:40:44.768Z,994.96
2022-11-28T11:41:47.465Z,994.94
2022-11-28T11:42:51.084Z,994.93
2022-11-28T11:43:53.599Z,994.9
2022-11-28T11:44:56.264Z,994.92
2022-11-28T11:45:59.311Z,994.89
2022-11-28T11:47:01.949Z,994.89
2022-11-28T11:48:04.554Z,994.89
2022-11-28T11:49:08.249Z,994.86
2022-11-28T11:50:10.872Z,994.89
2022-11-28T11:51:13.584Z,994.87
2022-11-28T11:52:16.207Z,994.9
2022-11-28T11:53:19.122Z,994.82
2022-11-28T11:54:21.748Z,994.85
2022-11-28T11:55:24.408Z,994.82
2022-11-28T11:56:32.611Z,994.88
2022-11-28T11:57:35.513Z,994.86
2022-11-28T11:58:38.108Z,994.86
2022-11-28T11:59:42.454Z,994.77
2022-11-28T12:00:45.193Z,994.76
2022-11-28T12:01:47.923Z,994.76
2022-11-28T12:02:51.536Z,994.78
2022-11-28T12:03:54.568Z,994.8
2022-11-28T12:04:57.617Z,994.75
2022-11-28T12:06:15.503Z,994.74
2022-11-28T12:07:18.034Z,994.75
2022-11-28T12:08:20.657Z,994.71
2022-11-28T12:09:24.599Z,994.7
2022-11-28T12:10:27.447Z,994.7
2022-11-28T12:11:29.995Z,994.62
2022-11-28T12:12:33.396Z,994.67
2022-11-28T12:13:35.993Z,994.68
2022-11-28T12:14:45.471Z,994.7
2022-11-28T12:15:48.248Z,994.58
2022-11-28T12:16:51.054Z,994.62
2022-11-28T12:17:59.499Z,994.65
2022-11-28T12:19:07.597Z,994.63
2022-11-28T12:20:09.846Z,994.63
2022-11-28T12:21:17.095Z,994.6
2022-11-28T12:22:20.505Z,994.56
2022-11-28T12:23:23.097Z,994.54
2022-11-28T12:24:26.334Z,994.59
2022-11-28T12:25:28.965Z,994.61
2022-11-28T12:26:31.655Z,994.53
2022-11-28T12:27:34.368Z,994.58
2022-11-28T12:28:37.034Z,994.58
2022-11-28T12:29:39.799Z,994.51
2022-11-28T12:30:49.566Z,994.51
2022-11-28T12:31:51.854Z,994.53
2022-11-28T12:32:54.588Z,994.55
2022-11-28T12:33:57.216Z,994.52
2022-11-28T12:35:05.420Z,994.51
2022-11-28T12:36:07.748Z,994.48
2022-11-28T12:37:10.370Z,994.55
2022-11-28T12:38:13.115Z,994.5
2022-11-28T12:39:27.347Z,994.51
2022-11-28T12:40:33.562Z,994.52
2022-11-28T12:41:36.039Z,994.5
2022-11-28T12:42:38.624Z,994.48
2022-11-28T12:43:41.233Z,994.52
2022-11-28T12:44:49.599Z,994.45
2022-11-28T12:46:01.444Z,994.48
2022-11-28T12:47:04.217Z,994.45
2022-11-28T12:48:07.528Z,994.38
2022-11-28T12:49:10.146Z,994.38
2022-11-28T12:50:16.283Z,994.43
2022-11-28T12:51:18.767Z,994.4
2022-11-28T12:52:21.422Z,994.38
2022-11-28T12:53:24.123Z,994.41
2022-11-28T12:54:27.288Z,994.4
2022-11-28T12:55:29.904Z,994.34
2022-11-28T12:56:32.609Z,994.36
2022-11-28T12:57:35.278Z,994.38
2022-11-28T12:58:43.529Z,994.4
2022-11-28T12:59:47.727Z,994.38
2022-11-28T13:00:50.484Z,994.39
2022-11-28T13:01:53.406Z,994.29
2022-11-28T13:02:56.299Z,994.35
2022-11-28T13:04:04.504Z,994.38
2022-11-28T13:05:07.428Z,994.4
2022-11-28T13:06:10.089Z,994.31
2022-11-28T13:07:13.325Z,994.41
2022-11-28T13:08:16.012Z,994.35
2022-11-28T13:09:18.724Z,994.3
2022-11-28T13:10:21.361Z,994.34
2022-11-28T13:11:25.622Z,994.34
2022-11-28T13:12:27.919Z,994.34
2022-11-28T13:13:30.573Z,994.36